sensor_id;sensor_type;location;lat;lon;timestamp;P1;durP1;ratioP1;P2;durP2;ratioP2
17153;SDS011;8692;52.164;7.558;2022-12-10T00:01:47;26.10;;;17.17;;
17153;SDS011;8692;52.164;7.558;2022-12-10T00:04:16;28.47;;;17.47;;
17153;SDS011;8692;52.164;7.558;2022-12-10T00:06:45;28.27;;;19.00;;
17153;SDS011;8692;52.164;7.558;2022-12-10T00:09:16;25.87;;;18.10;;
17153;SDS011;8692;52.164;7.558;2022-12-10T00:11:46;27.13;;;19.00;;
17153;SDS011;8692;52.164;7.558;2022-12-10T00:14:17;27.30;;;17.53;;
17153;SDS011;8692;52.164;7.558;2022-12-10T00:16:48;26.53;;;16.67;;
17153;SDS011;8692;52.164;7.558;2022-12-10T00:19:16;28.00;;;18.30;;
17153;SDS011;8692;52.164;7.558;2022-12-10T00:21:44;27.67;;;18.27;;
17153;SDS011;8692;52.164;7.558;2022-12-10T00:24:13;30.27;;;20.20;;
17153;SDS011;8692;52.164;7.558;2022-12-10T00:26:41;27.40;;;18.40;;
17153;SDS011;8692;52.164;7.558;2022-12-10T00:29:12;27.40;;;17.97;;
17153;SDS011;8692;52.164;7.558;2022-12-10T00:31:43;25.70;;;16.60;;
17153;SDS011;8692;52.164;7.558;2022-12-10T00:34:12;24.07;;;16.23;;
17153;SDS011;8692;52.164;7.558;2022-12-10T00:36:43;27.03;;;18.03;;
17153;SDS011;8692;52.164;7.558;2022-12-10T00:39:13;25.87;;;17.20;;
17153;SDS011;8692;52.164;7.558;2022-12-10T00:41:43;23.60;;;16.17;;
17153;SDS011;8692;52.164;7.558;2022-12-10T00:44:11;25.33;;;15.53;;
17153;SDS011;8692;52.164;7.558;2022-12-10T00:46:40;25.50;;;16.80;;
17153;SDS011;8692;52.164;7.558;2022-12-10T00:49:12;24.80;;;16.97;;
17153;SDS011;8692;52.164;7.558;2022-12-10T00:51:43;26.07;;;18.27;;
17153;SDS011;8692;52.164;7.558;2022-12-10T00:54:11;24.60;;;16.93;;
17153;SDS011;8692;52.164;7.558;2022-12-10T00:56:39;26.57;;;17.33;;
17153;SDS011;8692;52.164;7.558;2022-12-10T00:59:10;26.87;;;18.20;;
17153;SDS011;8692;52.164;7.558;2022-12-10T01:01:39;23.80;;;16.13;;
17153;SDS011;8692;52.164;7.558;2022-12-10T01:04:10;23.33;;;15.93;;
17153;SDS011;8692;52.164;7.558;2022-12-10T01:06:42;25.60;;;16.43;;
17153;SDS011;8692;52.164;7.558;2022-12-10T01:09:11;25.60;;;16.87;;
17153;SDS011;8692;52.164;7.558;2022-12-10T01:11:41;23.27;;;16.30;;
17153;SDS011;8692;52.164;7.558;2022-12-10T01:14:13;25.80;;;17.17;;
17153;SDS011;8692;52.164;7.558;2022-12-10T01:16:47;24.77;;;16.37;;
17153;SDS011;8692;52.164;7.558;2022-12-10T01:19:19;23.30;;;16.27;;
17153;SDS011;8692;52.164;7.558;2022-12-10T01:21:49;28.23;;;24.23;;
17153;SDS011;8692;52.164;7.558;2022-12-10T01:24:17;26.17;;;18.87;;
17153;SDS011;8692;52.164;7.558;2022-12-10T01:26:47;27.10;;;18.73;;
17153;SDS011;8692;52.164;7.558;2022-12-10T01:29:16;28.00;;;17.87;;
17153;SDS011;8692;52.164;7.558;2022-12-10T01:31:44;29.80;;;17.93;;
17153;SDS011;8692;52.164;7.558;2022-12-10T01:34:14;27.13;;;17.13;;
17153;SDS011;8692;52.164;7.558;2022-12-10T01:36:48;24.77;;;17.03;;
17153;SDS011;8692;52.164;7.558;2022-12-10T01:39:20;24.60;;;16.87;;
17153;SDS011;8692;52.164;7.558;2022-12-10T01:41:50;24.17;;;17.53;;
17153;SDS011;8692;52.164;7.558;2022-12-10T01:47:26;25.17;;;17.93;;
17153;SDS011;8692;52.164;7.558;2022-12-10T01:49:57;27.60;;;18.57;;
17153;SDS011;8692;52.164;7.558;2022-12-10T01:52:29;34.10;;;21.33;;
17153;SDS011;8692;52.164;7.558;2022-12-10T01:54:57;34.13;;;21.47;;
17153;SDS011;8692;52.164;7.558;2022-12-10T01:57:26;33.03;;;20.63;;
17153;SDS011;8692;52.164;7.558;2022-12-10T01:59:59;46.30;;;27.93;;
17153;SDS011;8692;52.164;7.558;2022-12-10T02:02:42;35.20;;;21.10;;
17153;SDS011;8692;52.164;7.558;2022-12-10T02:05:21;27.00;;;18.37;;
17153;SDS011;8692;52.164;7.558;2022-12-10T02:07:59;29.93;;;17.73;;
17153;SDS011;8692;52.164;7.558;2022-12-10T02:10:39;30.40;;;18.40;;
17153;SDS011;8692;52.164;7.558;2022-12-10T02:13:15;28.83;;;19.10;;
17153;SDS011;8692;52.164;7.558;2022-12-10T02:15:48;28.20;;;19.13;;
17153;SDS011;8692;52.164;7.558;2022-12-10T02:18:19;26.80;;;17.93;;
17153;SDS011;8692;52.164;7.558;2022-12-10T02:20:52;26.90;;;18.23;;
17153;SDS011;8692;52.164;7.558;2022-12-10T02:23:26;29.80;;;19.13;;
17153;SDS011;8692;52.164;7.558;2022-12-10T02:25:59;29.40;;;19.00;;
17153;SDS011;8692;52.164;7.558;2022-12-10T02:28:36;27.67;;;18.50;;
17153;SDS011;8692;52.164;7.558;2022-12-10T02:31:11;27.27;;;16.53;;
17153;SDS011;8692;52.164;7.558;2022-12-10T02:33:43;26.83;;;16.93;;
17153;SDS011;8692;52.164;7.558;2022-12-10T02:36:15;28.80;;;18.10;;
17153;SDS011;8692;52.164;7.558;2022-12-10T02:38:47;28.93;;;18.43;;
17153;SDS011;8692;52.164;7.558;2022-12-10T02:41:22;30.47;;;18.77;;
17153;SDS011;8692;52.164;7.558;2022-12-10T02:43:58;28.00;;;18.37;;
17153;SDS011;8692;52.164;7.558;2022-12-10T02:46:31;30.67;;;19.27;;
17153;SDS011;8692;52.164;7.558;2022-12-10T02:49:04;30.47;;;19.30;;
17153;SDS011;8692;52.164;7.558;2022-12-10T02:51:35;29.07;;;19.70;;
17153;SDS011;8692;52.164;7.558;2022-12-10T02:54:30;31.47;;;20.80;;
17153;SDS011;8692;52.164;7.558;2022-12-10T02:57:03;30.20;;;18.90;;
17153;SDS011;8692;52.164;7.558;2022-12-10T02:59:42;28.40;;;18.77;;
17153;SDS011;8692;52.164;7.558;2022-12-10T03:02:29;30.93;;;19.67;;
17153;SDS011;8692;52.164;7.558;2022-12-10T03:05:05;31.77;;;18.97;;
17153;SDS011;8692;52.164;7.558;2022-12-10T03:07:51;27.30;;;18.50;;
17153;SDS011;8692;52.164;7.558;2022-12-10T03:10:25;31.60;;;19.87;;
17153;SDS011;8692;52.164;7.558;2022-12-10T03:12:58;29.93;;;18.80;;
17153;SDS011;8692;52.164;7.558;2022-12-10T03:15:33;31.47;;;19.73;;
17153;SDS011;8692;52.164;7.558;2022-12-10T03:18:04;28.90;;;18.73;;
17153;SDS011;8692;52.164;7.558;2022-12-10T03:20:36;28.17;;;18.27;;
17153;SDS011;8692;52.164;7.558;2022-12-10T03:23:07;28.77;;;18.47;;
17153;SDS011;8692;52.164;7.558;2022-12-10T03:25:38;29.70;;;18.47;;
17153;SDS011;8692;52.164;7.558;2022-12-10T03:28:07;28.07;;;17.93;;
17153;SDS011;8692;52.164;7.558;2022-12-10T03:30:38;29.17;;;19.33;;
17153;SDS011;8692;52.164;7.558;2022-12-10T03:33:12;27.57;;;18.00;;
17153;SDS011;8692;52.164;7.558;2022-12-10T03:35:41;30.40;;;19.17;;
17153;SDS011;8692;52.164;7.558;2022-12-10T03:38:09;31.03;;;19.30;;
17153;SDS011;8692;52.164;7.558;2022-12-10T03:40:38;29.33;;;18.70;;
17153;SDS011;8692;52.164;7.558;2022-12-10T03:43:09;31.67;;;19.83;;
17153;SDS011;8692;52.164;7.558;2022-12-10T03:45:42;30.67;;;18.90;;
17153;SDS011;8692;52.164;7.558;2022-12-10T03:48:10;28.13;;;18.23;;
17153;SDS011;8692;52.164;7.558;2022-12-10T03:50:39;30.13;;;19.17;;
17153;SDS011;8692;52.164;7.558;2022-12-10T03:53:10;28.37;;;19.20;;
17153;SDS011;8692;52.164;7.558;2022-12-10T03:55:38;28.97;;;19.43;;
17153;SDS011;8692;52.164;7.558;2022-12-10T03:58:06;32.20;;;19.77;;
17153;SDS011;8692;52.164;7.558;2022-12-10T04:00:36;28.63;;;18.10;;
17153;SDS011;8692;52.164;7.558;2022-12-10T04:03:09;27.33;;;18.20;;
17153;SDS011;8692;52.164;7.558;2022-12-10T04:05:37;28.07;;;18.73;;
17153;SDS011;8692;52.164;7.558;2022-12-10T04:08:06;27.97;;;18.40;;
17153;SDS011;8692;52.164;7.558;2022-12-10T04:10:35;29.20;;;18.93;;
17153;SDS011;8692;52.164;7.558;2022-12-10T04:13:05;29.40;;;19.17;;
17153;SDS011;8692;52.164;7.558;2022-12-10T04:15:51;31.33;;;19.47;;
17153;SDS011;8692;52.164;7.558;2022-12-10T04:18:36;24.53;;;17.07;;
17153;SDS011;8692;52.164;7.558;2022-12-10T04:21:05;26.77;;;18.63;;
17153;SDS011;8692;52.164;7.558;2022-12-10T04:23:51;28.73;;;18.40;;
17153;SDS011;8692;52.164;7.558;2022-12-10T04:26:37;26.33;;;17.27;;
17153;SDS011;8692;52.164;7.558;2022-12-10T04:29:20;29.23;;;18.83;;
17153;SDS011;8692;52.164;7.558;2022-12-10T04:31:49;25.47;;;16.97;;
17153;SDS011;8692;52.164;7.558;2022-12-10T04:34:18;31.63;;;18.07;;
17153;SDS011;8692;52.164;7.558;2022-12-10T04:36:47;25.67;;;17.63;;
17153;SDS011;8692;52.164;7.558;2022-12-10T04:39:17;26.13;;;16.83;;
17153;SDS011;8692;52.164;7.558;2022-12-10T04:41:46;25.40;;;16.97;;
17153;SDS011;8692;52.164;7.558;2022-12-10T04:44:15;26.90;;;16.97;;
17153;SDS011;8692;52.164;7.558;2022-12-10T04:46:44;25.87;;;17.27;;
17153;SDS011;8692;52.164;7.558;2022-12-10T04:49:15;25.60;;;16.73;;
17153;SDS011;8692;52.164;7.558;2022-12-10T04:51:45;29.93;;;17.70;;
17153;SDS011;8692;52.164;7.558;2022-12-10T04:54:14;26.73;;;17.77;;
17153;SDS011;8692;52.164;7.558;2022-12-10T04:56:45;26.97;;;15.63;;
17153;SDS011;8692;52.164;7.558;2022-12-10T04:59:14;24.70;;;16.63;;
17153;SDS011;8692;52.164;7.558;2022-12-10T05:01:43;23.63;;;15.37;;
17153;SDS011;8692;52.164;7.558;2022-12-10T05:04:12;24.83;;;16.47;;
17153;SDS011;8692;52.164;7.558;2022-12-10T05:06:45;25.27;;;16.77;;
17153;SDS011;8692;52.164;7.558;2022-12-10T05:09:15;25.63;;;16.03;;
17153;SDS011;8692;52.164;7.558;2022-12-10T05:11:47;24.07;;;15.40;;
17153;SDS011;8692;52.164;7.558;2022-12-10T05:14:15;23.87;;;15.53;;
17153;SDS011;8692;52.164;7.558;2022-12-10T05:16:44;23.70;;;15.77;;
17153;SDS011;8692;52.164;7.558;2022-12-10T05:19:14;24.00;;;15.70;;
17153;SDS011;8692;52.164;7.558;2022-12-10T05:21:43;25.47;;;15.47;;
17153;SDS011;8692;52.164;7.558;2022-12-10T05:24:28;22.97;;;14.10;;
17153;SDS011;8692;52.164;7.558;2022-12-10T05:26:58;24.83;;;15.57;;
17153;SDS011;8692;52.164;7.558;2022-12-10T05:29:26;24.20;;;15.77;;
17153;SDS011;8692;52.164;7.558;2022-12-10T05:31:54;23.60;;;15.77;;
17153;SDS011;8692;52.164;7.558;2022-12-10T05:34:22;23.33;;;15.07;;
17153;SDS011;8692;52.164;7.558;2022-12-10T05:36:52;20.67;;;13.90;;
17153;SDS011;8692;52.164;7.558;2022-12-10T05:39:20;24.90;;;14.43;;
17153;SDS011;8692;52.164;7.558;2022-12-10T05:41:48;21.60;;;15.27;;
17153;SDS011;8692;52.164;7.558;2022-12-10T05:44:18;23.23;;;15.27;;
17153;SDS011;8692;52.164;7.558;2022-12-10T05:46:46;23.83;;;16.10;;
17153;SDS011;8692;52.164;7.558;2022-12-10T05:49:14;21.50;;;14.17;;
17153;SDS011;8692;52.164;7.558;2022-12-10T05:51:42;23.27;;;15.43;;
17153;SDS011;8692;52.164;7.558;2022-12-10T05:54:10;22.70;;;15.23;;
17153;SDS011;8692;52.164;7.558;2022-12-10T05:56:38;26.03;;;17.23;;
17153;SDS011;8692;52.164;7.558;2022-12-10T06:03:27;24.20;;;15.00;;
17153;SDS011;8692;52.164;7.558;2022-12-10T06:05:55;25.30;;;15.47;;
17153;SDS011;8692;52.164;7.558;2022-12-10T06:08:23;23.10;;;15.63;;
17153;SDS011;8692;52.164;7.558;2022-12-10T06:10:51;22.20;;;15.17;;
17153;SDS011;8692;52.164;7.558;2022-12-10T06:13:22;24.90;;;15.87;;
17153;SDS011;8692;52.164;7.558;2022-12-10T06:15:50;23.47;;;15.43;;
17153;SDS011;8692;52.164;7.558;2022-12-10T06:18:18;25.23;;;16.40;;
17153;SDS011;8692;52.164;7.558;2022-12-10T06:20:48;22.30;;;15.70;;
17153;SDS011;8692;52.164;7.558;2022-12-10T06:23:17;24.53;;;16.03;;
17153;SDS011;8692;52.164;7.558;2022-12-10T06:25:45;22.73;;;15.57;;
17153;SDS011;8692;52.164;7.558;2022-12-10T06:28:13;24.97;;;16.57;;
17153;SDS011;8692;52.164;7.558;2022-12-10T06:30:41;26.47;;;17.20;;
17153;SDS011;8692;52.164;7.558;2022-12-10T06:33:09;23.80;;;15.53;;
17153;SDS011;8692;52.164;7.558;2022-12-10T06:35:37;24.27;;;16.43;;
17153;SDS011;8692;52.164;7.558;2022-12-10T06:38:07;25.30;;;15.47;;
17153;SDS011;8692;52.164;7.558;2022-12-10T06:40:38;24.87;;;16.40;;
17153;SDS011;8692;52.164;7.558;2022-12-10T06:43:06;21.77;;;14.70;;
17153;SDS011;8692;52.164;7.558;2022-12-10T06:45:37;23.87;;;15.87;;
17153;SDS011;8692;52.164;7.558;2022-12-10T06:48:08;24.80;;;16.53;;
17153;SDS011;8692;52.164;7.558;2022-12-10T06:50:39;27.40;;;17.13;;
17153;SDS011;8692;52.164;7.558;2022-12-10T06:53:11;25.77;;;16.30;;
17153;SDS011;8692;52.164;7.558;2022-12-10T06:55:41;22.67;;;15.80;;
17153;SDS011;8692;52.164;7.558;2022-12-10T06:58:09;23.27;;;15.63;;
17153;SDS011;8692;52.164;7.558;2022-12-10T07:00:37;22.90;;;16.37;;
17153;SDS011;8692;52.164;7.558;2022-12-10T07:03:05;25.83;;;16.60;;
17153;SDS011;8692;52.164;7.558;2022-12-10T07:05:33;24.43;;;16.23;;
17153;SDS011;8692;52.164;7.558;2022-12-10T07:08:04;24.20;;;15.50;;
17153;SDS011;8692;52.164;7.558;2022-12-10T07:10:33;25.30;;;16.93;;
17153;SDS011;8692;52.164;7.558;2022-12-10T07:13:03;26.37;;;16.30;;
17153;SDS011;8692;52.164;7.558;2022-12-10T07:15:31;26.50;;;17.50;;
17153;SDS011;8692;52.164;7.558;2022-12-10T07:18:02;25.53;;;16.23;;
17153;SDS011;8692;52.164;7.558;2022-12-10T07:20:30;24.77;;;16.43;;
17153;SDS011;8692;52.164;7.558;2022-12-10T07:22:58;27.63;;;18.40;;
17153;SDS011;8692;52.164;7.558;2022-12-10T07:25:29;24.47;;;16.37;;
17153;SDS011;8692;52.164;7.558;2022-12-10T07:28:01;25.93;;;17.23;;
17153;SDS011;8692;52.164;7.558;2022-12-10T07:30:29;26.40;;;16.90;;
17153;SDS011;8692;52.164;7.558;2022-12-10T07:32:58;28.03;;;16.33;;
17153;SDS011;8692;52.164;7.558;2022-12-10T07:35:28;25.90;;;16.70;;
17153;SDS011;8692;52.164;7.558;2022-12-10T07:37:56;26.37;;;17.47;;
17153;SDS011;8692;52.164;7.558;2022-12-10T07:40:27;26.53;;;17.07;;
17153;SDS011;8692;52.164;7.558;2022-12-10T07:42:57;24.57;;;16.47;;
17153;SDS011;8692;52.164;7.558;2022-12-10T07:45:29;25.10;;;16.37;;
17153;SDS011;8692;52.164;7.558;2022-12-10T07:47:57;24.40;;;16.10;;
17153;SDS011;8692;52.164;7.558;2022-12-10T07:50:25;26.57;;;17.10;;
17153;SDS011;8692;52.164;7.558;2022-12-10T07:52:53;22.93;;;16.70;;
17153;SDS011;8692;52.164;7.558;2022-12-10T07:55:21;28.77;;;16.97;;
17153;SDS011;8692;52.164;7.558;2022-12-10T07:57:49;23.87;;;16.40;;
17153;SDS011;8692;52.164;7.558;2022-12-10T08:00:18;24.20;;;16.40;;
17153;SDS011;8692;52.164;7.558;2022-12-10T08:02:50;29.50;;;18.27;;
17153;SDS011;8692;52.164;7.558;2022-12-10T08:05:18;27.17;;;17.80;;
17153;SDS011;8692;52.164;7.558;2022-12-10T08:07:46;27.13;;;17.83;;
17153;SDS011;8692;52.164;7.558;2022-12-10T08:10:14;28.10;;;18.67;;
17153;SDS011;8692;52.164;7.558;2022-12-10T08:12:42;33.73;;;19.90;;
17153;SDS011;8692;52.164;7.558;2022-12-10T08:15:10;27.30;;;18.90;;
17153;SDS011;8692;52.164;7.558;2022-12-10T08:17:40;29.00;;;18.33;;
17153;SDS011;8692;52.164;7.558;2022-12-10T08:20:12;25.43;;;17.80;;
17153;SDS011;8692;52.164;7.558;2022-12-10T08:22:40;28.43;;;19.07;;
17153;SDS011;8692;52.164;7.558;2022-12-10T08:25:08;26.93;;;16.60;;
17153;SDS011;8692;52.164;7.558;2022-12-10T08:27:37;27.07;;;16.87;;
17153;SDS011;8692;52.164;7.558;2022-12-10T08:30:05;28.97;;;17.93;;
17153;SDS011;8692;52.164;7.558;2022-12-10T08:32:35;29.93;;;19.93;;
17153;SDS011;8692;52.164;7.558;2022-12-10T08:35:03;28.60;;;18.27;;
17153;SDS011;8692;52.164;7.558;2022-12-10T08:37:33;27.80;;;18.13;;
17153;SDS011;8692;52.164;7.558;2022-12-10T08:40:02;30.20;;;17.67;;
17153;SDS011;8692;52.164;7.558;2022-12-10T08:42:34;28.40;;;18.90;;
17153;SDS011;8692;52.164;7.558;2022-12-10T08:45:04;27.17;;;18.00;;
17153;SDS011;8692;52.164;7.558;2022-12-10T08:47:33;27.87;;;18.63;;
17153;SDS011;8692;52.164;7.558;2022-12-10T08:50:01;29.10;;;18.27;;
17153;SDS011;8692;52.164;7.558;2022-12-10T08:52:30;28.47;;;18.43;;
17153;SDS011;8692;52.164;7.558;2022-12-10T08:54:59;30.87;;;18.83;;
17153;SDS011;8692;52.164;7.558;2022-12-10T08:57:27;27.60;;;18.13;;
17153;SDS011;8692;52.164;7.558;2022-12-10T08:59:55;30.53;;;19.83;;
17153;SDS011;8692;52.164;7.558;2022-12-10T09:02:23;33.07;;;20.17;;
17153;SDS011;8692;52.164;7.558;2022-12-10T09:04:51;32.73;;;21.27;;
17153;SDS011;8692;52.164;7.558;2022-12-10T09:07:21;34.10;;;20.50;;
17153;SDS011;8692;52.164;7.558;2022-12-10T09:09:50;34.80;;;21.73;;
17153;SDS011;8692;52.164;7.558;2022-12-10T09:12:21;33.73;;;20.47;;
17153;SDS011;8692;52.164;7.558;2022-12-10T09:14:49;34.73;;;22.27;;
17153;SDS011;8692;52.164;7.558;2022-12-10T09:17:19;32.13;;;20.97;;
17153;SDS011;8692;52.164;7.558;2022-12-10T09:19:48;29.00;;;20.37;;
17153;SDS011;8692;52.164;7.558;2022-12-10T09:22:18;31.27;;;20.60;;
17153;SDS011;8692;52.164;7.558;2022-12-10T09:24:46;32.87;;;21.00;;
17153;SDS011;8692;52.164;7.558;2022-12-10T09:27:17;33.30;;;20.97;;
17153;SDS011;8692;52.164;7.558;2022-12-10T09:29:50;36.27;;;22.03;;
17153;SDS011;8692;52.164;7.558;2022-12-10T09:32:18;35.67;;;23.27;;
17153;SDS011;8692;52.164;7.558;2022-12-10T09:34:46;29.63;;;21.23;;
17153;SDS011;8692;52.164;7.558;2022-12-10T09:37:18;31.43;;;21.73;;
17153;SDS011;8692;52.164;7.558;2022-12-10T09:39:46;34.17;;;21.43;;
17153;SDS011;8692;52.164;7.558;2022-12-10T09:42:27;31.37;;;19.37;;
17153;SDS011;8692;52.164;7.558;2022-12-10T09:45:05;30.33;;;19.10;;
17153;SDS011;8692;52.164;7.558;2022-12-10T09:47:43;36.33;;;22.50;;
17153;SDS011;8692;52.164;7.558;2022-12-10T09:50:20;34.70;;;21.60;;
17153;SDS011;8692;52.164;7.558;2022-12-10T09:52:53;28.20;;;19.23;;
17153;SDS011;8692;52.164;7.558;2022-12-10T09:55:26;31.27;;;20.20;;
17153;SDS011;8692;52.164;7.558;2022-12-10T09:57:59;34.27;;;21.37;;
17153;SDS011;8692;52.164;7.558;2022-12-10T10:00:37;29.13;;;20.50;;
17153;SDS011;8692;52.164;7.558;2022-12-10T10:03:10;33.20;;;23.45;;
17153;SDS011;8692;52.164;7.558;2022-12-10T10:05:46;27.60;;;20.33;;
17153;SDS011;8692;52.164;7.558;2022-12-10T10:08:18;29.43;;;20.93;;
17153;SDS011;8692;52.164;7.558;2022-12-10T10:10:54;27.87;;;19.07;;
17153;SDS011;8692;52.164;7.558;2022-12-10T10:13:26;32.33;;;25.08;;
17153;SDS011;8692;52.164;7.558;2022-12-10T10:16:07;29.47;;;20.70;;
17153;SDS011;8692;52.164;7.558;2022-12-10T10:18:46;29.77;;;20.03;;
17153;SDS011;8692;52.164;7.558;2022-12-10T10:21:20;30.97;;;20.93;;
17153;SDS011;8692;52.164;7.558;2022-12-10T10:23:50;32.67;;;21.43;;
17153;SDS011;8692;52.164;7.558;2022-12-10T10:26:18;30.80;;;19.53;;
17153;SDS011;8692;52.164;7.558;2022-12-10T10:28:52;32.07;;;20.43;;
17153;SDS011;8692;52.164;7.558;2022-12-10T10:31:26;28.60;;;19.67;;
17153;SDS011;8692;52.164;7.558;2022-12-10T10:33:57;28.53;;;20.03;;
17153;SDS011;8692;52.164;7.558;2022-12-10T10:36:27;30.33;;;22.40;;
17153;SDS011;8692;52.164;7.558;2022-12-10T10:38:59;32.07;;;21.00;;
17153;SDS011;8692;52.164;7.558;2022-12-10T10:41:36;30.10;;;20.63;;
17153;SDS011;8692;52.164;7.558;2022-12-10T10:44:12;29.83;;;21.03;;
17153;SDS011;8692;52.164;7.558;2022-12-10T10:46:43;36.17;;;21.00;;
17153;SDS011;8692;52.164;7.558;2022-12-10T10:49:19;32.17;;;21.40;;
17153;SDS011;8692;52.164;7.558;2022-12-10T10:51:51;32.77;;;23.00;;
17153;SDS011;8692;52.164;7.558;2022-12-10T10:54:33;32.90;;;22.67;;
17153;SDS011;8692;52.164;7.558;2022-12-10T10:57:06;37.77;;;23.70;;
17153;SDS011;8692;52.164;7.558;2022-12-10T10:59:41;35.43;;;22.53;;
17153;SDS011;8692;52.164;7.558;2022-12-10T11:02:18;38.27;;;23.00;;
17153;SDS011;8692;52.164;7.558;2022-12-10T11:04:53;35.40;;;22.73;;
17153;SDS011;8692;52.164;7.558;2022-12-10T11:07:32;33.90;;;21.73;;
17153;SDS011;8692;52.164;7.558;2022-12-10T11:10:02;36.67;;;25.37;;
17153;SDS011;8692;52.164;7.558;2022-12-10T11:12:45;32.67;;;21.40;;
17153;SDS011;8692;52.164;7.558;2022-12-10T11:15:29;35.97;;;21.00;;
17153;SDS011;8692;52.164;7.558;2022-12-10T11:18:19;33.73;;;21.97;;
17153;SDS011;8692;52.164;7.558;2022-12-10T11:20:59;36.93;;;22.20;;
17153;SDS011;8692;52.164;7.558;2022-12-10T11:23:30;38.00;;;21.30;;
17153;SDS011;8692;52.164;7.558;2022-12-10T11:26:02;30.20;;;19.93;;
17153;SDS011;8692;52.164;7.558;2022-12-10T11:28:43;29.80;;;21.73;;
17153;SDS011;8692;52.164;7.558;2022-12-10T11:31:25;29.87;;;19.60;;
17153;SDS011;8692;52.164;7.558;2022-12-10T11:34:06;28.47;;;19.20;;
17153;SDS011;8692;52.164;7.558;2022-12-10T11:36:42;32.50;;;20.43;;
17153;SDS011;8692;52.164;7.558;2022-12-10T11:39:22;29.33;;;19.97;;
17153;SDS011;8692;52.164;7.558;2022-12-10T11:42:07;33.40;;;21.47;;
17153;SDS011;8692;52.164;7.558;2022-12-10T11:44:47;33.10;;;22.53;;
17153;SDS011;8692;52.164;7.558;2022-12-10T11:50:20;32.87;;;22.37;;
17153;SDS011;8692;52.164;7.558;2022-12-10T11:52:59;34.17;;;22.43;;
17153;SDS011;8692;52.164;7.558;2022-12-10T11:55:42;34.13;;;20.83;;
17153;SDS011;8692;52.164;7.558;2022-12-10T11:58:21;37.60;;;23.87;;
17153;SDS011;8692;52.164;7.558;2022-12-10T12:01:16;34.33;;;22.80;;
17153;SDS011;8692;52.164;7.558;2022-12-10T12:03:55;36.40;;;22.80;;
17153;SDS011;8692;52.164;7.558;2022-12-10T12:06:46;39.60;;;22.60;;
17153;SDS011;8692;52.164;7.558;2022-12-10T12:09:27;37.93;;;22.93;;
17153;SDS011;8692;52.164;7.558;2022-12-10T12:12:09;34.43;;;23.43;;
17153;SDS011;8692;52.164;7.558;2022-12-10T12:14:46;34.33;;;23.03;;
17153;SDS011;8692;52.164;7.558;2022-12-10T12:17:19;33.13;;;21.63;;
17153;SDS011;8692;52.164;7.558;2022-12-10T12:19:52;35.67;;;24.43;;
17153;SDS011;8692;52.164;7.558;2022-12-10T12:22:24;39.93;;;26.73;;
17153;SDS011;8692;52.164;7.558;2022-12-10T12:24:57;41.33;;;24.13;;
17153;SDS011;8692;52.164;7.558;2022-12-10T12:27:28;41.40;;;25.67;;
17153;SDS011;8692;52.164;7.558;2022-12-10T12:30:06;45.17;;;26.97;;
17153;SDS011;8692;52.164;7.558;2022-12-10T12:32:45;43.40;;;27.20;;
17153;SDS011;8692;52.164;7.558;2022-12-10T12:35:19;46.07;;;27.77;;
17153;SDS011;8692;52.164;7.558;2022-12-10T12:37:53;48.43;;;28.70;;
17153;SDS011;8692;52.164;7.558;2022-12-10T12:40:27;48.70;;;28.60;;
17153;SDS011;8692;52.164;7.558;2022-12-10T12:43:00;54.97;;;31.80;;
17153;SDS011;8692;52.164;7.558;2022-12-10T12:45:39;51.10;;;29.00;;
17153;SDS011;8692;52.164;7.558;2022-12-10T12:48:14;51.17;;;31.47;;
17153;SDS011;8692;52.164;7.558;2022-12-10T12:50:50;50.90;;;29.63;;
17153;SDS011;8692;52.164;7.558;2022-12-10T12:53:24;47.53;;;29.83;;
17153;SDS011;8692;52.164;7.558;2022-12-10T12:56:02;47.30;;;27.77;;
17153;SDS011;8692;52.164;7.558;2022-12-10T12:58:37;57.50;;;32.10;;
17153;SDS011;8692;52.164;7.558;2022-12-10T13:01:18;63.20;;;33.23;;
17153;SDS011;8692;52.164;7.558;2022-12-10T13:03:53;60.17;;;32.37;;
17153;SDS011;8692;52.164;7.558;2022-12-10T13:06:24;65.03;;;32.00;;
17153;SDS011;8692;52.164;7.558;2022-12-10T13:08:59;63.70;;;33.03;;
17153;SDS011;8692;52.164;7.558;2022-12-10T13:11:45;59.90;;;32.37;;
17153;SDS011;8692;52.164;7.558;2022-12-10T13:14:30;61.70;;;29.73;;
17153;SDS011;8692;52.164;7.558;2022-12-10T13:17:05;59.70;;;30.67;;
17153;SDS011;8692;52.164;7.558;2022-12-10T13:19:37;70.93;;;34.07;;
17153;SDS011;8692;52.164;7.558;2022-12-10T13:22:09;65.13;;;34.53;;
17153;SDS011;8692;52.164;7.558;2022-12-10T13:24:45;59.77;;;31.47;;
17153;SDS011;8692;52.164;7.558;2022-12-10T13:27:29;62.53;;;31.40;;
17153;SDS011;8692;52.164;7.558;2022-12-10T13:30:00;60.43;;;30.00;;
17153;SDS011;8692;52.164;7.558;2022-12-10T13:32:43;68.03;;;33.53;;
17153;SDS011;8692;52.164;7.558;2022-12-10T13:35:22;53.07;;;28.97;;
17153;SDS011;8692;52.164;7.558;2022-12-10T13:37:56;61.77;;;31.60;;
17153;SDS011;8692;52.164;7.558;2022-12-10T13:40:38;63.87;;;30.50;;
17153;SDS011;8692;52.164;7.558;2022-12-10T13:43:29;57.63;;;31.33;;
17153;SDS011;8692;52.164;7.558;2022-12-10T13:46:24;61.63;;;30.50;;
17153;SDS011;8692;52.164;7.558;2022-12-10T13:48:55;58.30;;;29.97;;
17153;SDS011;8692;52.164;7.558;2022-12-10T13:51:32;57.60;;;29.87;;
17153;SDS011;8692;52.164;7.558;2022-12-10T13:57:34;55.63;;;29.90;;
17153;SDS011;8692;52.164;7.558;2022-12-10T14:00:15;58.70;;;29.50;;
17153;SDS011;8692;52.164;7.558;2022-12-10T14:02:54;56.83;;;28.67;;
17153;SDS011;8692;52.164;7.558;2022-12-10T14:05:34;57.43;;;27.90;;
17153;SDS011;8692;52.164;7.558;2022-12-10T14:08:12;60.65;;;43.42;;
17153;SDS011;8692;52.164;7.558;2022-12-10T14:10:47;60.27;;;33.53;;
17153;SDS011;8692;52.164;7.558;2022-12-10T14:13:19;49.93;;;28.93;;
17153;SDS011;8692;52.164;7.558;2022-12-10T14:15:52;60.80;;;31.30;;
17153;SDS011;8692;52.164;7.558;2022-12-10T14:18:22;57.67;;;29.83;;
17153;SDS011;8692;52.164;7.558;2022-12-10T14:20:53;58.63;;;28.33;;
17153;SDS011;8692;52.164;7.558;2022-12-10T14:23:26;62.67;;;30.67;;
17153;SDS011;8692;52.164;7.558;2022-12-10T14:26:12;52.83;;;29.20;;
17153;SDS011;8692;52.164;7.558;2022-12-10T14:28:46;62.00;;;30.90;;
17153;SDS011;8692;52.164;7.558;2022-12-10T14:31:18;63.17;;;30.63;;
17153;SDS011;8692;52.164;7.558;2022-12-10T14:33:51;69.93;;;31.70;;
17153;SDS011;8692;52.164;7.558;2022-12-10T14:36:24;62.90;;;31.80;;
17153;SDS011;8692;52.164;7.558;2022-12-10T14:38:55;61.93;;;31.17;;
17153;SDS011;8692;52.164;7.558;2022-12-10T14:41:24;62.50;;;30.97;;
17153;SDS011;8692;52.164;7.558;2022-12-10T14:44:03;67.37;;;31.17;;
17153;SDS011;8692;52.164;7.558;2022-12-10T14:46:32;67.90;;;31.10;;
17153;SDS011;8692;52.164;7.558;2022-12-10T14:49:00;61.33;;;29.60;;
17153;SDS011;8692;52.164;7.558;2022-12-10T14:51:31;74.27;;;33.43;;
17153;SDS011;8692;52.164;7.558;2022-12-10T14:54:03;70.60;;;29.17;;
17153;SDS011;8692;52.164;7.558;2022-12-10T14:56:48;66.70;;;30.93;;
17153;SDS011;8692;52.164;7.558;2022-12-10T14:59:20;66.10;;;30.63;;
17153;SDS011;8692;52.164;7.558;2022-12-10T15:01:54;64.73;;;29.70;;
17153;SDS011;8692;52.164;7.558;2022-12-10T15:04:25;67.90;;;32.00;;
17153;SDS011;8692;52.164;7.558;2022-12-10T15:07:11;69.27;;;32.90;;
17153;SDS011;8692;52.164;7.558;2022-12-10T15:09:44;66.13;;;32.30;;
17153;SDS011;8692;52.164;7.558;2022-12-10T15:12:20;64.47;;;30.97;;
17153;SDS011;8692;52.164;7.558;2022-12-10T15:15:02;71.00;;;30.77;;
17153;SDS011;8692;52.164;7.558;2022-12-10T15:17:36;63.77;;;30.70;;
17153;SDS011;8692;52.164;7.558;2022-12-10T15:20:18;72.33;;;30.80;;